Flight Track Log - Related Links

Times and Time Zones

All times are in EDT time to prevent confusion due to time zone crossing. See the N244A flight status page for this flight to view local times or setup timezone preferences in your user account.


Time Position Orientation Groundspeed Altitude Reporting Facility
EDT Latitude Longitude Course Direction KTS MPH feet Rate Location/Type
Wed 03:06:40 PM 36.7642 -89.4919 137° Southeast 430 495 6,400  Level Memphis Center
Wed 03:07:40 PM 36.7053 -89.4228 137° Southeast 352 405 9,600 3,200 Climbing Memphis Center
Wed 03:08:40 PM 36.6319 -89.3667 148° Southeast 329 379 12,800 3,250 Climbing Memphis Center
Wed 03:09:40 PM 36.5606 -89.3031 144° Southeast 319 367 16,100 2,800 Climbing Memphis Center
Wed 03:10:40 PM 36.4892 -89.2264 139° Southeast 319 367 18,400 2,100 Climbing Memphis Center
Wed 03:11:40 PM 36.4047 -89.1372 140° Southeast 338 389 20,300 1,600 Climbing Memphis Center
Wed 03:12:40 PM 36.3206 -89.0511 140° Southeast 363 418 21,600 1,550 Climbing Memphis Center
Wed 03:13:40 PM 36.2383 -88.9572 137° Southeast 380 437 23,400 1,750 Climbing Memphis Center
Wed 03:14:40 PM 36.1619 -88.8531 132° Southeast 393 452 25,100 1,350 Climbing Memphis Center
Wed 03:15:40 PM 36.0794 -88.7519 135° Southeast 410 472 26,100 1,050 Climbing Memphis Center
Wed 03:16:40 PM 35.9761 -88.6692 147° Southeast 430 495 27,200 1,100 Climbing Memphis Center
Wed 03:17:40 PM 35.8747 -88.5842 146° Southeast 442 509 28,300 1,000 Climbing Memphis Center
Wed 03:18:40 PM 35.7692 -88.4944 145° Southeast 449 517 29,200 950 Climbing Memphis Center
Wed 03:19:40 PM 35.6658 -88.4072 146° Southeast 454 522 30,200 1,050 Climbing Memphis Center
Wed 03:20:40 PM 35.5619 -88.3153 144° Southeast 454 522 31,300 4,400 Climbing Memphis Center
Wed 03:21:40 PM 35.4606 -88.2311 146° Southeast 454 522 39,000 1,050 Climbing Memphis Center
Wed 03:22:40 PM 35.3589 -88.1472 146° Southeast 443 510 33,400 -2,200 Descending Memphis Center
Wed 03:23:40 PM 35.2572 -88.0608 145° Southeast 449 517 34,600 1,100 Climbing Memphis Center
Wed 03:24:40 PM 35.1556 -87.9772 146° Southeast 449 517 35,600 850 Climbing Memphis Center
Wed 03:25:40 PM 35.0536 -87.8864 144° Southeast 453 521 36,300 750 Climbing Memphis Center
Wed 03:26:40 PM 34.9456 -87.8008 147° Southeast 459 528 37,100 700 Climbing Memphis Center
Wed 03:27:40 PM 34.8500 -87.7203 145° Southeast 453 521 37,700 600 Climbing Memphis Center
Wed 03:29:00 PM 34.7271 -87.6173 146° Southeast  Level FlightAware Approximate
Wed 03:29:40 PM 34.6564 -87.5597 146° Southeast 442 509 38,900  Level Memphis Center
Wed 03:31:57 PM 34.4072 -87.3472 145° Southeast 476 548 39,000 30 Climbing Atlanta Center
Wed 03:32:57 PM 34.2967 -87.2647 148° Southeast 476 548 39,000  Level Atlanta Center
Wed 03:33:57 PM 34.1903 -87.1806 147° Southeast 476 548 39,000  Level Atlanta Center
Wed 03:34:57 PM 34.0819 -87.0936 146° Southeast 471 542 39,000  Level Atlanta Center
Wed 03:35:57 PM 33.9736 -87.0072 147° Southeast 471 542 39,000  Level Atlanta Center
Wed 03:36:57 PM 33.8669 -86.9208 146° Southeast 471 542 39,000  Level Atlanta Center
Wed 03:37:57 PM 33.7606 -86.8347 146° Southeast 471 542 39,000  Level Atlanta Center
Wed 03:38:57 PM 33.6497 -86.7464 146° Southeast 471 542 39,000  Level Atlanta Center
Wed 03:39:57 PM 33.5408 -86.6608 147° Southeast 471 542 39,000  Level Atlanta Center
Wed 03:40:57 PM 33.4342 -86.5753 146° Southeast 471 542 39,000  Level Atlanta Center
Wed 03:41:57 PM 33.3253 -86.4875 146° Southeast 471 542 39,000  Level Atlanta Center
Wed 03:42:57 PM 33.2308 -86.4106 146° Southeast 471 542 39,000  Level Atlanta Center
Wed 03:43:57 PM 33.1239 -86.3281 147° Southeast 471 542 39,000  Level Atlanta Center
Wed 03:44:57 PM 33.0169 -86.2411 146° Southeast 471 542 39,000  Level Atlanta Center
Wed 03:45:57 PM 32.9056 -86.1567 148° Southeast 471 542 39,000  Level Atlanta Center
Wed 03:46:57 PM 32.8006 -86.0728 146° Southeast 471 542 39,000  Level Atlanta Center
Wed 03:47:57 PM 32.6789 -85.9786 147° Southeast 471 542 39,000  Level Atlanta Center
Wed 03:48:57 PM 32.5697 -85.8925 146° Southeast 477 549 39,000  Level Atlanta Center
Wed 03:49:57 PM 32.4603 -85.8114 148° Southeast 477 549 39,000  Level Atlanta Center
Wed 03:50:57 PM 32.3467 -85.7206 146° Southeast 472 543 39,000  Level Atlanta Center
Wed 03:51:57 PM 32.2372 -85.6350 147° Southeast 477 549 39,000  Level Atlanta Center
Wed 03:52:57 PM 32.1236 -85.5494 147° Southeast 477 549 39,000  Level Atlanta Center
Wed 03:53:57 PM 32.0119 -85.4644 147° Southeast 477 549 39,000  Level Atlanta Center
Wed 03:54:57 PM 31.9000 -85.3819 148° Southeast 477 549 39,000  Level Atlanta Center
Wed 03:55:42 PM 31.8114 -85.3178 148° Southeast 476 548 39,000  Level Jacksonville Center
Wed 03:56:42 PM 31.7022 -85.2319 146° Southeast 497 572 39,000  Level Jacksonville Center
Wed 03:57:43 PM 31.5869 -85.1486 148° Southeast 490 564 39,000  Level Jacksonville Center
Wed 03:58:42 PM 31.4922 -85.0756 147° Southeast 479 551 39,000  Level Jacksonville Center
Wed 03:59:43 PM 31.3808 -84.9925 148° Southeast 479 551 39,000  Level Jacksonville Center
Wed 04:00:42 PM 31.2694 -84.9075 147° Southeast 474 545 39,000 -101 Level Jacksonville Center
Wed 04:01:42 PM 31.1517 -84.8297 151° Southeast 474 545 38,800 -500 Descending Jacksonville Center
Wed 04:02:42 PM 31.0294 -84.7569 153° Southeast 481 554 38,000 -1,050 Descending Jacksonville Center
Wed 04:03:42 PM 30.9075 -84.6819 152° Southeast 486 559 36,700 -1,750 Descending Jacksonville Center
Wed 04:04:42 PM 30.7728 -84.5972 152° Southeast 486 559 34,500 -1,950 Descending Jacksonville Center
Wed 04:05:42 PM 30.6569 -84.5203 150° Southeast 487 560 32,800 -1,450 Descending Jacksonville Center
Wed 04:06:42 PM 30.5389 -84.4433 151° Southeast 487 560 31,600 -950 Descending Jacksonville Center
Wed 04:07:42 PM 30.4167 -84.3739 154° Southeast 487 560 30,900 -350 Descending Jacksonville Center
Wed 04:08:42 PM 30.2900 -84.3094 156° South 487 560 30,900  Level Jacksonville Center
Wed 04:09:43 PM 30.1653 -84.2500 158° South 492 566 30,900  Level Jacksonville Center
Wed 04:10:42 PM 30.0344 -84.1883 158° South 498 573 30,900  Level Jacksonville Center
Wed 04:11:42 PM 29.9056 -84.1314 159° South 498 573 30,900  Level Jacksonville Center
Wed 04:12:42 PM 29.7872 -84.0772 158° South 504 580 30,900  Level Jacksonville Center
Wed 04:13:43 PM 29.6603 -84.0136 156° South 504 580 30,900  Level Jacksonville Center
Wed 04:14:43 PM 29.5419 -83.9311 149° Southeast 497 572 30,900  Level Jacksonville Center
Wed 04:15:43 PM 29.4342 -83.8297 141° Southeast 497 572 30,900  Level Jacksonville Center
Wed 04:16:42 PM 29.3264 -83.7311 141° Southeast 497 572 30,900  Level Jacksonville Center
Wed 04:17:42 PM 29.2183 -83.6350 142° Southeast 497 572 30,900 -300 Level Jacksonville Center
Wed 04:18:42 PM 29.1064 -83.5367 142° Southeast 502 578 30,300 -1,091 Descending Jacksonville Center
Wed 04:19:43 PM 29.0003 -83.4411 142° Southeast 502 578 28,700 -1,500 Descending Jacksonville Center
Wed 04:20:42 PM 28.8919 -83.3503 144° Southeast 502 578 27,300 -1,563 Descending Jacksonville Center
Wed 04:21:42 PM 28.7711 -83.2811 153° Southeast 491 565 25,600 -1,950 Descending Jacksonville Center
Wed 04:22:42 PM 28.6461 -83.2119 154° Southeast 486 559 23,400 -2,203 Descending Jacksonville Center
Wed 04:24:39 PM 28.4000 -83.0833 155° Southeast 478 550 19,100 -2,203 Descending Tampa TRACON
Wed 04:25:39 PM 28.2833 -83.0167 153° Southeast 458 527 16,900 -2,143 Descending Tampa TRACON
Wed 04:26:45 PM 28.1667 -82.9667 159° South 441 507 14,600 -1,857 Descending Tampa TRACON
Wed 04:27:45 PM 28.0500 -82.9000 153° Southeast 426 490 13,000 -1,571 Descending Tampa TRACON
Wed 04:28:51 PM 27.9500 -82.8667 164° South 334 384 11,300 -1,323 Descending Tampa TRACON
Wed 04:29:52 PM 27.8667 -82.8333 161° South 282 325 10,200 -1,357 Descending Tampa TRACON
Wed 04:30:46 PM 27.8000 -82.8167 168° South 280 322 8,700 -1,737 Descending Tampa TRACON
Wed 04:31:46 PM 27.7167 -82.8000 170° South 295 339 6,900 -1,737 Descending Tampa TRACON
Wed 04:32:40 PM 27.6500 -82.7500 146° Southeast 294 338 5,400 -1,429 Descending Tampa TRACON
Wed 04:33:52 PM 27.5667 -82.7000 152° Southeast 275 316 3,900 -1,136 Descending Tampa TRACON
Wed 04:34:52 PM 27.5000 -82.6667 156° South 251 289 2,900 -889 Descending Tampa TRACON
Wed 04:35:40 PM 27.4667 -82.6333 138° Southeast 218 251 2,300 -1,000 Descending Tampa TRACON
Wed 04:36:46 PM 27.4333 -82.6000 138° Southeast 138 159 1,000 -1,182 Descending Tampa TRACON
Wed 04:38:00 PM 27.3954 -82.5544 180° South  Level Estimated

Login

Don't have an account? Register now (free) for customized features, flight alerts, and more!